Husky — WDF2194 — position and weather

sailwx.info

Track history (hours):
 
Tides and Currents Weather Stations Pressure Air Temp Water Temp Dewpoint Dewpoint Depression Visibility Wind Speed Wind Dir Waves Ship Positions

Husky

Owner: Hickey Marine Enterprises, Inc., Vancouver, WA. More information available from US FCC via Universal Licensing System and Coast Guard Vessel Documentation Center.

Last reported at 2018-Jan-18 01:49 UTC. Time now 2018-Jan-18 02:22 UTC.
Position N 46°10' W 123°06'.

Length 13 m; draft 2.1 m.

Type: Tug. MMSI: 2521422.

Date/timePositionNaut miles runAvg speedWind from/ knotsBaromVisibWave heightAir tempDewpointWater temp
2018-Jan-18 01:49N 46°10' W 123°06'0 0.1
2018-Jan-18 01:21N 46°10' W 123°06'0 0.1
2018-Jan-18 01:01N 46°10' W 123°06'0 0.0
2018-Jan-18 00:01N 46°10' W 123°06'0 0.0
2018-Jan-17 23:57N 46°10' W 123°06'  
2018-Jan-10 21:32N 45°39' W 122°45'0 1.4
2018-Jan-10 21:30N 45°39' W 122°45'0 0.3
2018-Jan-10 21:00N 45°39' W 122°45'0 0.0
2018-Jan-08 22:31N 45°39' W 122°45'0 0.7
2018-Jan-08 22:30N 45°39' W 122°45'0 0.1
2018-Jan-08 22:00N 45°39' W 122°45'0 0.0
2018-Jan-08 21:30N 45°39' W 122°45'0 0.0
2018-Jan-08 21:00N 45°39' W 122°45'0 0.0
2018-Jan-08 20:30N 45°39' W 122°45'0 0.0
2018-Jan-08 20:00N 45°39' W 122°45'0 0.1
2018-Jan-08 19:30N 45°39' W 122°45'0 0.1
2018-Jan-08 19:00N 45°39' W 122°45'0 0.0
2018-Jan-08 18:31N 45°39' W 122°45'0 0.2
2018-Jan-08 18:00N 45°39' W 122°45'2 4.2
2018-Jan-08 17:30N 45°38' W 122°42'1 1.4
2018-Jan-08 17:00N 45°38' W 122°41'2 3.5
2018-Jan-08 16:30N 45°38' W 122°43'1 2.3
2018-Jan-08 16:00N 45°39' W 122°45'  
Track history (hours):
 
Tides and Currents Weather Stations Pressure Air Temp Water Temp Dewpoint Dewpoint Depression Visibility Wind Speed Wind Dir Waves Ship Positions

Husky

Owner: Hickey Marine Enterprises, Inc., Vancouver, WA. More information available from US FCC via Universal Licensing System and Coast Guard Vessel Documentation Center.

Last reported at 2018-Jan-18 01:49 UTC. Time now 2018-Jan-18 02:22 UTC.
Position N 46°10' W 123°06'.

Length 13 m; draft 2.1 m.

Type: Tug. MMSI: 2521422.

Date/timePositionNaut miles runAvg speedWind from/ knotsBaromVisibWave heightAir tempDewpointWater temp
2018-Jan-18 01:49N 46°10' W 123°06'0 0.1
2018-Jan-18 01:21N 46°10' W 123°06'0 0.1
2018-Jan-18 01:01N 46°10' W 123°06'0 0.0
2018-Jan-18 00:01N 46°10' W 123°06'0 0.0
2018-Jan-17 23:57N 46°10' W 123°06'  
2018-Jan-10 21:32N 45°39' W 122°45'0 1.4
2018-Jan-10 21:30N 45°39' W 122°45'0 0.3
2018-Jan-10 21:00N 45°39' W 122°45'0 0.0
2018-Jan-08 22:31N 45°39' W 122°45'0 0.7
2018-Jan-08 22:30N 45°39' W 122°45'0 0.1
2018-Jan-08 22:00N 45°39' W 122°45'0 0.0
2018-Jan-08 21:30N 45°39' W 122°45'0 0.0
2018-Jan-08 21:00N 45°39' W 122°45'0 0.0
2018-Jan-08 20:30N 45°39' W 122°45'0 0.0
2018-Jan-08 20:00N 45°39' W 122°45'0 0.1
2018-Jan-08 19:30N 45°39' W 122°45'0 0.1
2018-Jan-08 19:00N 45°39' W 122°45'0 0.0
2018-Jan-08 18:31N 45°39' W 122°45'0 0.2
2018-Jan-08 18:00N 45°39' W 122°45'2 4.2
2018-Jan-08 17:30N 45°38' W 122°42'1 1.4
2018-Jan-08 17:00N 45°38' W 122°41'2 3.5
2018-Jan-08 16:30N 45°38' W 122°43'1 2.3
2018-Jan-08 16:00N 45°39' W 122°45'  

Dump ship's entire track history